createdAt,value
2023-03-14T00:01:21.155Z,232.50
2023-03-14T00:03:49.383Z,241.18
2023-03-14T00:06:18.163Z,247.45
2023-03-14T00:08:47.509Z,239.88
2023-03-14T00:11:18.199Z,253.73
2023-03-14T00:13:49.342Z,233.73
2023-03-14T00:16:17.304Z,245.68
2023-03-14T00:18:45.227Z,246.82
2023-03-14T00:21:14.161Z,240.52
2023-03-14T00:23:43.721Z,248.50
2023-03-14T00:26:15.058Z,249.63
2023-03-14T00:28:44.037Z,250.65
2023-03-14T00:31:15.056Z,240.07
2023-03-14T00:33:43.231Z,239.05
2023-03-14T00:36:12.995Z,246.52
2023-03-14T00:38:42.638Z,246.43
2023-03-14T00:41:15.286Z,237.30
2023-03-14T00:43:43.490Z,249.02
2023-03-14T00:46:11.979Z,258.42
2023-03-14T00:48:40.483Z,246.10
2023-03-14T00:51:10.313Z,230.32
2023-03-14T00:53:39.878Z,242.93
2023-03-14T00:56:10.699Z,264.40
2023-03-14T00:58:41.097Z,245.98
2023-03-14T01:01:10.586Z,245.43
2023-03-14T01:03:38.590Z,250.10
2023-03-14T01:06:14.585Z,276.00
2023-03-14T01:08:44.404Z,243.48
2023-03-14T01:11:14.179Z,245.38
2023-03-14T01:13:43.898Z,244.18
2023-03-14T01:16:12.935Z,249.38
2023-03-14T01:18:44.480Z,241.15
2023-03-14T01:21:14.630Z,247.23
2023-03-14T01:23:42.829Z,234.43
2023-03-14T01:26:11.864Z,240.43
2023-03-14T01:28:41.056Z,252.50
2023-03-14T01:31:12.114Z,248.65
2023-03-14T01:33:40.337Z,256.10
2023-03-14T01:36:11.061Z,251.30
2023-03-14T01:38:40.650Z,260.70
2023-03-14T01:41:15.383Z,250.32
2023-03-14T01:43:44.689Z,269.23
2023-03-14T01:46:26.845Z,254.52
2023-03-14T01:49:01.399Z,250.82
2023-03-14T01:51:35.100Z,255.85
2023-03-14T01:54:09.191Z,255.65
2023-03-14T01:56:38.690Z,250.57
2023-03-14T01:59:09.864Z,252.30
2023-03-14T02:01:41.813Z,262.40
2023-03-14T02:04:10.951Z,249.57
2023-03-14T02:06:48.676Z,246.20
2023-03-14T02:09:18.740Z,236.43
2023-03-14T02:11:47.636Z,262.85
2023-03-14T02:14:33.533Z,252.45
2023-03-14T02:17:23.711Z,233.32
2023-03-14T02:20:16.163Z,238.52
2023-03-14T02:22:47.734Z,226.82
2023-03-14T02:25:21.894Z,242.73
2023-03-14T02:27:51.776Z,243.95
2023-03-14T02:30:21.376Z,259.40
2023-03-14T02:32:54.438Z,246.88
2023-03-14T02:35:24.731Z,254.60
2023-03-14T02:37:57.338Z,264.33
2023-03-14T02:40:27.661Z,243.80
2023-03-14T02:42:56.755Z,250.45
2023-03-14T02:45:36.605Z,239.63
2023-03-14T02:48:08.214Z,223.05
2023-03-14T02:50:38.773Z,239.77
2023-03-14T02:53:07.569Z,247.07
2023-03-14T02:55:35.965Z,264.23
2023-03-14T02:58:11.491Z,242.90
2023-03-14T03:00:39.309Z,240.32
2023-03-14T03:03:09.349Z,252.77
2023-03-14T03:05:37.182Z,250.90
2023-03-14T03:08:05.562Z,239.98
2023-03-14T03:10:34.826Z,238.40
2023-03-14T03:13:02.986Z,245.57
2023-03-14T03:15:32.966Z,234.65
2023-03-14T03:18:01.084Z,249.15
2023-03-14T03:20:28.997Z,233.07
2023-03-14T03:22:56.867Z,232.27
2023-03-14T03:25:24.535Z,237.25
2023-03-14T03:27:52.317Z,238.85
2023-03-14T03:30:20.979Z,233.20
2023-03-14T03:32:50.823Z,239.52
2023-03-14T03:35:18.495Z,224.97
2023-03-14T03:37:46.245Z,249.15
2023-03-14T03:40:14.221Z,246.80
2023-03-14T03:42:45.785Z,241.25
2023-03-14T03:45:13.444Z,220.57
2023-03-14T03:47:51.852Z,230.60
2023-03-14T03:50:19.630Z,247.27
2023-03-14T03:52:47.378Z,246.45
2023-03-14T03:55:15.228Z,241.55
2023-03-14T03:57:44.182Z,253.93
2023-03-14T04:00:13.881Z,236.38
2023-03-14T04:02:44.505Z,246.80
2023-03-14T04:05:17.672Z,245.03
2023-03-14T04:07:53.953Z,249.90
2023-03-14T04:10:26.075Z,235.87
2023-03-14T04:13:07.022Z,225.70
2023-03-14T04:15:35.883Z,251.95
2023-03-14T04:18:09.973Z,241.88
2023-03-14T04:20:38.925Z,235.68
2023-03-14T04:23:07.567Z,237.98
2023-03-14T04:25:35.585Z,246.80
2023-03-14T04:28:06.116Z,229.77
2023-03-14T04:30:34.604Z,245.38
2023-03-14T04:33:09.228Z,247.52
2023-03-14T04:35:42.854Z,243.23
2023-03-14T04:38:16.018Z,245.90
2023-03-14T04:40:46.061Z,238.32
2023-03-14T04:43:14.954Z,239.30
2023-03-14T04:45:49.848Z,239.60
2023-03-14T04:48:17.768Z,236.35
2023-03-14T04:50:47.977Z,234.85
2023-03-14T04:53:17.106Z,237.63
2023-03-14T04:55:50.425Z,244.85
2023-03-14T04:58:19.180Z,233.52
2023-03-14T05:00:49.679Z,235.00
2023-03-14T05:03:46.761Z,227.53
2023-03-14T05:06:21.254Z,229.18
2023-03-14T05:09:07.405Z,218.93
2023-03-14T05:11:53.817Z,233.02
2023-03-14T05:14:53.824Z,222.25
2023-03-14T05:17:34.514Z,223.73
2023-03-14T05:20:20.914Z,233.25
2023-03-14T05:23:13.506Z,240.32
2023-03-14T05:26:04.178Z,221.05
2023-03-14T05:29:01.114Z,228.82
2023-03-14T05:31:35.626Z,235.85
2023-03-14T05:34:27.266Z,246.98
2023-03-14T05:37:19.064Z,239.27
2023-03-14T05:40:09.737Z,245.77
2023-03-14T05:42:53.129Z,231.50
2023-03-14T05:45:42.968Z,243.63
2023-03-14T05:48:31.648Z,252.63
2023-03-14T05:51:18.601Z,238.18
2023-03-14T05:54:00.300Z,232.17
2023-03-14T05:56:48.486Z,233.55
2023-03-14T05:59:31.420Z,247.57
2023-03-14T06:02:09.044Z,263.50
2023-03-14T06:04:48.171Z,262.48
2023-03-14T06:07:15.850Z,237.18
2023-03-14T06:09:44.860Z,267.15
2023-03-14T06:12:14.036Z,253.88
2023-03-14T06:14:44.692Z,258.65
2023-03-14T06:17:13.087Z,235.90
2023-03-14T06:19:49.618Z,249.47
2023-03-14T06:22:17.403Z,250.20
2023-03-14T06:24:45.454Z,252.65
2023-03-14T06:27:14.944Z,252.98
2023-03-14T06:29:42.838Z,238.15
2023-03-14T06:32:10.673Z,251.95
2023-03-14T06:34:40.876Z,244.13
2023-03-14T06:37:08.984Z,263.35
2023-03-14T06:39:36.829Z,263.23
2023-03-14T06:42:11.776Z,242.07
2023-03-14T06:44:42.995Z,262.38
2023-03-14T06:47:10.836Z,242.00
2023-03-14T06:49:42.360Z,257.75
2023-03-14T06:52:10.446Z,239.32
2023-03-14T06:54:38.609Z,258.70
2023-03-14T06:57:06.254Z,241.55
2023-03-14T06:59:34.109Z,251.82
2023-03-14T07:02:03.258Z,256.10
2023-03-14T07:04:31.038Z,249.70
2023-03-14T07:06:58.782Z,252.50
2023-03-14T07:09:26.602Z,250.85
2023-03-14T07:11:59.735Z,253.65
2023-03-14T07:14:27.678Z,249.63
2023-03-14T07:16:56.102Z,262.83
2023-03-14T07:19:25.169Z,240.15
2023-03-14T07:21:53.024Z,254.88
2023-03-14T07:24:25.239Z,252.20
2023-03-14T07:29:25.757Z,228.85
2023-03-14T07:31:54.001Z,248.90
2023-03-14T07:34:22.384Z,254.27
2023-03-14T07:36:51.930Z,252.48
2023-03-14T07:39:19.808Z,244.88
2023-03-14T07:41:47.511Z,233.05
2023-03-14T07:44:38.658Z,245.57
2023-03-14T07:47:06.674Z,251.10
2023-03-14T07:49:34.517Z,246.88
2023-03-14T07:52:03.607Z,248.50
2023-03-14T07:54:31.355Z,251.98
2023-03-14T07:56:59.793Z,255.45
2023-03-14T07:59:27.462Z,253.95
2023-03-14T08:01:55.201Z,254.82
2023-03-14T08:04:22.824Z,261.58
2023-03-14T08:06:50.601Z,250.70
2023-03-14T08:09:19.735Z,245.32
2023-03-14T08:11:47.621Z,259.67
2023-03-14T08:14:15.244Z,250.20
2023-03-14T08:16:42.911Z,245.95
2023-03-14T08:19:10.532Z,261.95
2023-03-14T08:21:38.177Z,248.65
2023-03-14T08:24:05.991Z,252.75
2023-03-14T08:26:35.021Z,256.60
2023-03-14T08:29:03.957Z,250.30
2023-03-14T08:31:31.695Z,243.38
2023-03-14T08:34:00.653Z,251.07
2023-03-14T08:36:28.482Z,267.20
2023-03-14T08:38:56.259Z,253.18
2023-03-14T08:41:24.597Z,258.88
2023-03-14T08:43:53.627Z,255.98
2023-03-14T08:46:21.464Z,254.55
2023-03-14T08:48:49.258Z,252.95
2023-03-14T08:51:16.860Z,257.30
2023-03-14T08:53:44.939Z,253.63
2023-03-14T08:56:12.556Z,249.45
2023-03-14T08:58:40.219Z,250.98
2023-03-14T09:01:11.252Z,266.50
2023-03-14T09:03:39.518Z,245.85
2023-03-14T09:06:09.262Z,246.15
2023-03-14T09:08:39.387Z,249.30
2023-03-14T09:11:09.604Z,250.20
2023-03-14T09:13:40.258Z,243.85
2023-03-14T09:16:10.679Z,247.02
2023-03-14T09:18:38.332Z,258.77
2023-03-14T09:21:06.305Z,244.25
2023-03-14T09:23:33.996Z,285.15
2023-03-14T09:26:02.469Z,262.08
2023-03-14T09:28:31.300Z,258.60
2023-03-14T09:30:59.142Z,268.90
2023-03-14T09:33:28.439Z,249.02
2023-03-14T09:36:00.892Z,255.65
2023-03-14T09:38:28.755Z,254.43
2023-03-14T09:40:59.779Z,242.48
2023-03-14T09:43:28.761Z,254.63
2023-03-14T09:45:56.479Z,247.32
2023-03-14T09:48:29.806Z,260.77
2023-03-14T09:50:59.564Z,255.25
2023-03-14T09:53:30.505Z,257.90
2023-03-14T09:56:00.004Z,263.75
2023-03-14T09:58:27.723Z,267.90
2023-03-14T10:00:58.415Z,245.00
2023-03-14T10:03:34.163Z,262.48
2023-03-14T10:06:02.032Z,260.63
2023-03-14T10:08:29.689Z,268.63
2023-03-14T10:10:57.410Z,242.75
2023-03-14T10:13:27.446Z,273.45
2023-03-14T10:15:56.649Z,271.05
2023-03-14T10:18:29.059Z,265.33
2023-03-14T10:21:07.831Z,261.45
2023-03-14T10:23:36.865Z,254.52
2023-03-14T10:26:09.262Z,258.42
2023-03-14T10:28:41.860Z,235.75
2023-03-14T10:31:09.969Z,260.90
2023-03-14T10:33:39.858Z,266.98
2023-03-14T10:36:21.035Z,260.25
2023-03-14T10:38:48.900Z,259.33
2023-03-14T10:41:19.566Z,256.63
2023-03-14T10:43:51.498Z,252.52
2023-03-14T10:46:21.820Z,245.88
2023-03-14T10:49:08.668Z,243.60
2023-03-14T10:51:37.966Z,251.32
2023-03-14T10:54:14.903Z,260.88
2023-03-14T10:56:42.573Z,242.52
2023-03-14T10:59:16.384Z,243.57
2023-03-14T11:01:50.074Z,242.07
2023-03-14T11:04:33.495Z,253.90
2023-03-14T11:07:10.049Z,234.73
2023-03-14T11:09:44.430Z,243.35
2023-03-14T11:12:39.130Z,241.57
2023-03-14T11:15:17.427Z,226.07
2023-03-14T11:17:58.975Z,205.75
2023-03-14T11:20:37.225Z,213.52
2023-03-14T11:23:14.553Z,212.43
2023-03-14T11:25:47.349Z,231.98
2023-03-14T11:28:24.564Z,222.55
2023-03-14T11:30:54.866Z,228.90
2023-03-14T11:33:27.237Z,219.63
2023-03-14T11:36:01.876Z,238.77
2023-03-14T11:38:37.268Z,236.38
2023-03-14T11:41:11.180Z,237.20
2023-03-14T11:43:43.821Z,236.18
2023-03-14T11:46:16.371Z,236.43
2023-03-14T11:48:47.873Z,253.05
2023-03-14T11:51:22.775Z,256.88
2023-03-14T11:53:59.433Z,233.27
2023-03-14T11:56:33.655Z,230.68
2023-03-14T11:59:05.156Z,237.20
2023-03-14T12:01:43.959Z,244.23
2023-03-14T12:04:20.454Z,245.43
2023-03-14T12:06:51.139Z,260.00
2023-03-14T12:09:22.757Z,268.02
2023-03-14T12:11:57.498Z,262.60
2023-03-14T12:14:27.957Z,254.27
2023-03-14T12:16:59.087Z,255.67
2023-03-14T12:19:35.391Z,262.47
2023-03-14T12:22:15.142Z,253.80
2023-03-14T12:24:49.191Z,255.00
2023-03-14T12:27:49.361Z,243.05
2023-03-14T12:30:25.902Z,229.60
2023-03-14T12:33:33.592Z,235.70
2023-03-14T12:36:13.190Z,194.17
2023-03-14T12:39:08.564Z,230.93
2023-03-14T12:41:46.380Z,209.10
2023-03-14T12:44:43.422Z,224.87
2023-03-14T12:47:52.097Z,240.30
2023-03-14T12:50:28.223Z,229.40
2023-03-14T12:53:17.518Z,237.10
2023-03-14T12:55:48.877Z,227.77
2023-03-14T12:58:27.472Z,247.82
2023-03-14T13:01:01.541Z,247.90
2023-03-14T13:03:40.712Z,245.07
2023-03-14T13:06:12.158Z,249.27
2023-03-14T13:08:42.575Z,230.60
2023-03-14T13:11:13.985Z,226.25
2023-03-14T13:13:49.608Z,231.32
2023-03-14T13:16:20.372Z,240.70
2023-03-14T13:18:50.094Z,241.38
2023-03-14T13:21:20.710Z,231.57
2023-03-14T13:24:00.859Z,237.23
2023-03-14T13:26:36.929Z,226.95
2023-03-14T13:29:18.025Z,218.00
2023-03-14T13:31:46.868Z,223.82
2023-03-14T13:34:14.573Z,229.48
2023-03-14T13:36:42.277Z,217.17
2023-03-14T13:39:15.293Z,212.60
2023-03-14T13:41:43.777Z,215.23
2023-03-14T13:44:18.051Z,207.00
2023-03-14T13:46:45.757Z,201.23
2023-03-14T13:49:21.128Z,211.27
2023-03-14T13:51:48.804Z,200.17
2023-03-14T13:54:18.343Z,213.77
2023-03-14T13:56:46.030Z,200.87
2023-03-14T13:59:25.705Z,196.07
2023-03-14T14:01:54.752Z,207.70
2023-03-14T14:04:25.162Z,193.50
2023-03-14T14:06:56.305Z,199.77
2023-03-14T14:09:28.663Z,198.10
2023-03-14T14:12:15.062Z,192.17
2023-03-14T14:14:49.371Z,183.53
2023-03-14T14:17:21.368Z,202.80
2023-03-14T14:19:50.097Z,186.50
2023-03-14T14:22:19.018Z,226.17
2023-03-14T14:24:47.223Z,213.30
2023-03-14T14:27:17.718Z,213.33
2023-03-14T14:29:59.209Z,221.37
2023-03-14T14:32:27.340Z,214.33
2023-03-14T14:35:00.360Z,212.82
2023-03-14T14:37:31.274Z,221.90
2023-03-14T14:40:01.146Z,210.82
2023-03-14T14:42:31.301Z,233.73
2023-03-14T14:45:01.555Z,211.52
2023-03-14T14:47:30.890Z,244.45
2023-03-14T14:50:02.157Z,251.57
2023-03-14T14:52:36.418Z,257.30
2023-03-14T14:55:04.615Z,232.77
2023-03-14T14:57:37.248Z,229.40
2023-03-14T15:00:11.887Z,248.98
2023-03-14T15:02:46.012Z,241.73
2023-03-14T15:05:14.962Z,238.05
2023-03-14T15:07:42.657Z,243.70
2023-03-14T15:10:12.807Z,218.40
2023-03-14T15:12:41.024Z,230.00
2023-03-14T15:15:12.034Z,222.85
2023-03-14T15:17:40.076Z,203.10
2023-03-14T15:20:14.074Z,193.95
2023-03-14T15:22:42.078Z,198.90
2023-03-14T15:25:31.556Z,198.43
2023-03-14T15:27:59.384Z,171.80
2023-03-14T15:30:28.392Z,173.67
2023-03-14T15:32:56.045Z,171.33
2023-03-14T15:35:23.684Z,163.73
2023-03-14T15:37:51.298Z,181.70
2023-03-14T15:40:19.536Z,165.00
2023-03-14T15:42:47.239Z,148.47
2023-03-14T15:45:14.977Z,165.57
2023-03-14T15:47:44.101Z,152.60
2023-03-14T15:50:12.768Z,136.03
2023-03-14T15:52:40.484Z,141.73
2023-03-14T15:55:08.836Z,152.83
2023-03-14T15:57:36.465Z,138.97
2023-03-14T16:00:08.181Z,135.20
2023-03-14T16:02:35.839Z,138.30
2023-03-14T16:05:05.287Z,137.70
2023-03-14T16:07:34.328Z,129.50
2023-03-14T16:10:02.447Z,121.22
2023-03-14T16:12:30.144Z,128.95
2023-03-14T16:14:57.771Z,129.43
2023-03-14T16:17:25.372Z,119.75
2023-03-14T16:19:53.036Z,113.65
2023-03-14T16:22:21.982Z,114.38
2023-03-14T16:24:49.710Z,121.32
2023-03-14T16:27:17.380Z,121.03
2023-03-14T16:29:46.398Z,117.43
2023-03-14T16:32:14.033Z,112.72
2023-03-14T16:34:41.777Z,121.10
2023-03-14T16:37:09.381Z,109.53
2023-03-14T16:40:01.137Z,116.22
2023-03-14T16:42:26.679Z,115.78
2023-03-14T16:44:54.337Z,117.88
2023-03-14T16:47:22.031Z,114.90
2023-03-14T16:49:49.632Z,123.05
2023-03-14T16:52:17.243Z,117.43
2023-03-14T16:54:46.222Z,123.43
2023-03-14T16:57:13.898Z,118.25
2023-03-14T16:59:41.601Z,117.13
2023-03-14T17:02:10.138Z,117.07
2023-03-14T17:04:40.739Z,121.67
2023-03-14T17:07:08.886Z,116.27
2023-03-14T17:09:37.456Z,122.87
2023-03-14T17:12:07.219Z,130.47
2023-03-14T17:14:34.897Z,138.77
2023-03-14T17:17:02.586Z,139.93
2023-03-14T17:19:32.706Z,142.70
2023-03-14T17:22:21.285Z,155.70
2023-03-14T17:24:47.902Z,140.03
2023-03-14T17:27:20.039Z,146.40
2023-03-14T17:29:47.898Z,145.17
2023-03-14T17:32:15.641Z,152.73
2023-03-14T17:34:43.974Z,157.90
2023-03-14T17:37:11.946Z,174.93
2023-03-14T17:39:39.877Z,172.00
2023-03-14T17:42:07.995Z,168.60
2023-03-14T17:44:36.998Z,170.70
2023-03-14T17:47:04.763Z,175.30
2023-03-14T17:49:32.441Z,178.63
2023-03-14T17:52:00.121Z,172.37
2023-03-14T17:54:28.134Z,174.27
2023-03-14T17:56:57.317Z,183.30
2023-03-14T17:59:25.921Z,175.13
2023-03-14T18:01:55.047Z,185.30
2023-03-14T18:04:22.827Z,196.27
2023-03-14T18:06:50.533Z,178.10
2023-03-14T18:09:18.417Z,192.33
2023-03-14T18:11:47.113Z,186.93
2023-03-14T18:14:15.878Z,188.90
2023-03-14T18:16:48.447Z,182.33
2023-03-14T18:19:17.804Z,174.37
2023-03-14T18:21:47.330Z,191.27
2023-03-14T18:24:15.043Z,171.63
2023-03-14T18:26:42.713Z,177.60
2023-03-14T18:29:14.235Z,182.43
2023-03-14T18:31:41.975Z,176.17
2023-03-14T18:34:10.616Z,186.37
2023-03-14T18:36:39.663Z,186.23
2023-03-14T18:39:07.889Z,187.20
2023-03-14T18:41:36.274Z,191.20
2023-03-14T18:44:04.802Z,193.03
2023-03-14T18:46:32.859Z,197.93
2023-03-14T18:49:03.975Z,182.50
2023-03-14T18:51:33.707Z,184.57
2023-03-14T18:54:09.221Z,181.40
2023-03-14T18:56:39.351Z,177.93
2023-03-14T18:59:07.069Z,181.83
2023-03-14T19:01:35.161Z,195.03
2023-03-14T19:04:03.870Z,175.57
2023-03-14T19:06:33.031Z,187.17
2023-03-14T19:09:04.269Z,162.00
2023-03-14T19:11:31.939Z,170.10
2023-03-14T19:13:59.877Z,148.70
2023-03-14T19:16:27.985Z,172.03
2023-03-14T19:18:55.924Z,173.03
2023-03-14T19:21:29.083Z,158.30
2023-03-14T19:23:56.841Z,163.67
2023-03-14T19:26:25.909Z,157.47
2023-03-14T19:28:53.758Z,160.50
2023-03-14T19:31:21.829Z,139.63
2023-03-14T19:33:49.637Z,155.60
2023-03-14T19:36:26.082Z,154.73
2023-03-14T19:38:54.424Z,140.37
2023-03-14T19:41:24.446Z,138.50
2023-03-14T19:43:53.906Z,159.43
2023-03-14T19:46:22.568Z,148.30
2023-03-14T19:48:54.049Z,150.33
2023-03-14T19:51:23.057Z,153.13
2023-03-14T19:53:51.205Z,140.80
2023-03-14T19:56:20.602Z,150.33
2023-03-14T19:58:48.444Z,145.03
2023-03-14T20:01:17.489Z,140.70
2023-03-14T20:03:45.158Z,152.07
2023-03-14T20:06:13.305Z,143.67
2023-03-14T20:08:43.549Z,150.00
2023-03-14T20:11:11.740Z,147.10
2023-03-14T20:13:39.402Z,146.30
2023-03-14T20:16:10.341Z,141.30
2023-03-14T20:18:39.722Z,144.33
2023-03-14T20:21:08.040Z,129.63
2023-03-14T20:23:36.086Z,144.43
2023-03-14T20:26:04.315Z,137.70
2023-03-14T20:28:33.165Z,124.07
2023-03-14T20:31:01.116Z,144.33
2023-03-14T20:33:28.818Z,137.87
2023-03-14T20:36:00.076Z,140.87
2023-03-14T20:38:28.668Z,127.83
2023-03-14T20:40:57.278Z,129.90
2023-03-14T20:43:25.409Z,129.70
2023-03-14T20:45:54.645Z,133.90
2023-03-14T20:48:22.503Z,140.90
2023-03-14T20:50:50.889Z,137.33
2023-03-14T20:53:21.087Z,128.83
2023-03-14T20:55:48.922Z,121.90
2023-03-14T20:58:16.909Z,132.87
2023-03-14T21:00:47.673Z,133.07
2023-03-14T21:03:15.435Z,124.90
2023-03-14T21:05:43.352Z,127.97
2023-03-14T21:08:11.782Z,126.60
2023-03-14T21:10:40.776Z,132.63
2023-03-14T21:13:08.753Z,121.77
2023-03-14T21:15:37.349Z,123.97
2023-03-14T21:18:05.731Z,118.23
2023-03-14T21:20:33.577Z,117.00
2023-03-14T21:23:01.527Z,125.20
2023-03-14T21:25:29.902Z,115.43
2023-03-14T21:27:59.208Z,104.80
2023-03-14T21:30:27.034Z,105.80
2023-03-14T21:32:54.706Z,103.60
2023-03-14T21:35:22.421Z,107.13
2023-03-14T21:37:50.086Z,101.60
2023-03-14T21:40:18.133Z,110.93
2023-03-14T21:42:45.848Z,113.50
2023-03-14T21:45:16.694Z,115.53
2023-03-14T21:47:47.594Z,118.03
2023-03-14T21:50:15.785Z,114.37
2023-03-14T21:52:46.273Z,113.93
2023-03-14T21:55:17.312Z,111.77
2023-03-14T21:57:46.329Z,113.43
2023-03-14T22:00:18.147Z,116.53
2023-03-14T22:02:53.782Z,118.50
2023-03-14T22:05:31.105Z,116.93
2023-03-14T22:07:58.822Z,115.50
2023-03-14T22:10:26.410Z,117.23
2023-03-14T22:12:55.996Z,111.97
2023-03-14T22:15:24.986Z,114.77
2023-03-14T22:17:52.614Z,109.93
2023-03-14T22:20:20.453Z,107.53
2023-03-14T22:22:48.041Z,107.47
2023-03-14T22:25:15.872Z,110.57
2023-03-14T22:27:43.539Z,107.10
2023-03-14T22:30:12.659Z,105.53
2023-03-14T22:32:42.295Z,111.13
2023-03-14T22:35:10.984Z,111.77
2023-03-14T22:37:41.388Z,105.13
2023-03-14T22:40:10.853Z,107.37
2023-03-14T22:42:38.670Z,105.73
2023-03-14T22:45:07.457Z,104.73
2023-03-14T22:47:35.064Z,107.47
2023-03-14T22:50:04.726Z,111.10
2023-03-14T22:52:32.405Z,103.17
2023-03-14T22:55:00.300Z,110.17
2023-03-14T22:57:28.169Z,103.70
2023-03-14T22:59:55.753Z,108.30
2023-03-14T23:02:23.416Z,112.90
2023-03-14T23:04:51.021Z,98.37
2023-03-14T23:07:20.280Z,109.73
2023-03-14T23:09:47.966Z,106.70
2023-03-14T23:12:17.571Z,113.80
2023-03-14T23:14:45.258Z,100.10
2023-03-14T23:17:12.886Z,96.50
2023-03-14T23:19:40.521Z,99.33
2023-03-14T23:22:09.674Z,97.83
2023-03-14T23:24:38.670Z,108.50
2023-03-14T23:27:06.387Z,102.73
2023-03-14T23:29:34.041Z,112.07
2023-03-14T23:32:01.735Z,112.77
2023-03-14T23:34:29.426Z,107.70
2023-03-14T23:36:57.001Z,100.97
2023-03-14T23:39:24.758Z,104.57
2023-03-14T23:41:53.737Z,106.87
2023-03-14T23:44:23.004Z,100.23
2023-03-14T23:46:51.533Z,97.63
2023-03-14T23:49:19.129Z,98.80
2023-03-14T23:51:46.820Z,101.07
2023-03-14T23:54:14.509Z,102.17
2023-03-14T23:56:42.142Z,100.77
2023-03-14T23:59:11.092Z,99.07
